Florida AWOS List, Phone Numbers

USA |  
| Search AWOS

Rocky Mountain States: Montana | Wyoming | Colorado | New Mexico

Complete weather reports: Florida

Legend: KFNL = METAR available Follow your local AWOS on AV Mobile = METAR available on AV Mobile
Station Florida Location Frequency Phone
KAQQICAO ID KAQQ Apalachicola, Apalachicola
KAAFFAA ID AAF, ASOS, KAAF 291253Z AUTO 06004KT 10SM CLR 26/23 A2999 Follow KAAF on AV Mobile APALACHICOLA MUNICIPAL AIRPORT 119.925 850-653-8271
KNAEICAO ID KNAE Astor, Bombing Range Detachment Astor
KAVOFAA ID AVO, AWOS-3 AVON PARK 118.725 863-453-4223
KAGRFAA ID AGR Avon Park Gunnery Range
KBOWFAA ID BOW, AWOS-3, KBOW 291250Z 13005KT 10SM FEW020 26/26 A3006 Follow KBOW on AV Mobile Bartow Municipal 123.775 863-533-9004
F95FAA ID F95, AWOS-AV, KAJZ 291355Z AUTO 06004KT 7SM BKN095 OVC120 14/09 A3024 RMK AO2 T01420094 Follow  on AV Mobile BLOUNTSTOWN 119.350 850-674-1347
KBCTFAA ID BCT, AWOS-3, KBCT 291250Z 00000KT 10SM SCT020 M/M A3004 Follow KBCT on AV Mobile Boca Raton, Boca Raton Airport 121.125 561-391-2696
K1J0FAA ID 1J0, K1J0 291258Z AUTO VRB03KT 10SM -RA CLR 23/21 A3004 RMK AO2 SLP131 T02330211 PNO Follow K1J0 on AV Mobile TRI COUNTY AIRPORT
KBKVFAA ID BKV, ASOS, KBKV 291253Z 10005KT 10SM CLR 27/24 A3005 RMK AO2 SLP174 T02670239 Follow KBKV on AV Mobile BROOKSVILLE HERNANDO CO AIRPORT 134.725 352-799-5881
K1J4ICAO ID K1J4 Cape San Blas Coast Guard Station
KNZCICAO ID KNZC Cecil, Naval Air Station
2ISFAA ID 2IS, AWOS-3, KAJZ 291355Z AUTO 06004KT 7SM BKN095 OVC120 14/09 A3024 RMK AO2 T01420094 Follow  on AV Mobile CLEWISTON 124.175 863-983-7020
KX53ICAO ID KX53 Clewiston
KCOFFAA ID COF, KCOF 291258Z AUTO 18006KT 10SM CLR 30/25 A3005 RMK AO2 SLP180 T02950248 Follow KCOF on AV Mobile Cocoa / Patrick Air Force Base
KXMRFAA ID XMR, KXMR 291258Z AUTO 17007KT 10SM CLR 29/25 A3005 RMK AO2 SLP179 T02910246 Follow KXMR on AV Mobile Cocoa Beach, Cape Canaveral Air Force Station Skid Strip
KCEWFAA ID CEW, ASOS, KCEW 291253Z AUTO 07005KT 10SM FEW050 FEW060 23/21 A3003 Follow KCEW on AV Mobile CRESTVIEW SIKES AIRPORT 119.275 850-682-1237
KEGIFAA ID EGI, KEGI 291258Z AUTO 07006KT 10SM CLR 25/22 A3001 RMK AO2 SLP163 T02510224 $ Follow KEGI on AV Mobile Duke Field / Eglin Auxiliary
KCTYFAA ID CTY, KCTY 291253Z AUTO 13007KT 27/24 A3004 Follow KCTY on AV Mobile CROSS CITY AIRPORT
KCGCFAA ID CGC, AWOS-3, KCGC 291335Z AUTO 13005KT 10SM CLR 29/23 A3004 RMK AO2 LTG DSNT S PWINO Follow KCGC on AV Mobile CRYSTAL RIVER 118.325 352-563-6600
KDABFAA ID DAB, ASOS, KDAB 291253Z 20004KT 10SM BKN032 BKN050 BKN140 26/23 A3007 Follow KDAB on AV Mobile DAYTONA BEACH INTERNATIONAL 386-253-7469
54JFAA ID 54J, AWOS-3P, KAJZ 291355Z AUTO 06004KT 7SM BKN095 OVC120 14/09 A3024 RMK AO2 T01420094 Follow  on AV Mobile DEFUNIAK SPRINGS 118.725 850-892-0147
KDEDFAA ID DED, AWOS-3, KDED 291335Z AUTO 19006KT 10SM CLR 28/24 A3007 RMK AO1 Follow KDED on AV Mobile DELAND 119.575 386-740-5811
KDTSFAA ID DTS, ASOS, KDTS 291253Z AUTO 08008KT 10SM BKN060 27/23 A3000 RMK AO2 SLP159 T02670233 TSNO Follow KDTS on AV Mobile DESTIN-FT WALTON BEACH AIRPORT 133.925 850-654-7128
KX91ICAO ID KX91 Egmont Key Coast Guard Station
KFHBFAA ID FHB, AWOS-3, KFHB 291335Z AUTO 00000KT 10SM BKN100 29/23 A3005 RMK AO1 Follow KFHB on AV Mobile FERNANDINA BEACH 118.075 904-277-7323
KFXEFAA ID FXE, ASOS, KFXE 291253Z 13006KT 10SM FEW030 SCT100 30/26 A3004 Follow KFXE on AV Mobile FORT LAUDERDALE EXECUTIVE 954-772-2537
KFLLFAA ID FLL, ASOS, KFLL 291253Z 15010KT 10SM SCT024 BKN044 BKN250 31/25 A3004 Follow KFLL on AV Mobile FORT LAUDERDALE/HOLLYWOOD 954-359-7857
KFMYFAA ID FMY, ASOS, KFMY 291253Z 14006KT 10SM CLR 27/26 A3003 RMK AO2 SLP170 T02670256 Follow KFMY on AV Mobile FORT MYERS PAGE FIELD 239-936-2318
KRSWFAA ID RSW, ASOS, KRSW 291253Z 14006KT 10SM CLR 27/26 A3004 Follow KRSW on AV Mobile FORT MYERS SW FL INTERNATIONAL AIRPORT 239-561-0966
KX82ICAO ID KX82 Fort Pierce Coast Guard Station
KFPRFAA ID FPR, ASOS, KFPR 291351Z 15005KT 10SM SCT022 BKN028 30/24 A3006 RMK AO2 $ Follow KFPR on AV Mobile FORT PIERCE ST LUCIE 772-489-4281
KX86ICAO ID KX86 Fowey Rocks Coast Guard Station
KX89ICAO ID KX89 Ft. Myers Beach Coast Guard Station
KGNVFAA ID GNV, ASOS, KGNV 291253Z 13006KT 10SM BKN110 27/24 A3006 Follow KGNV on AV Mobile GAINESVILLE REGIONAL AIRPORT 352-335-8672
KHWOFAA ID HWO, ASOS, KHWO 291324Z 12009KT 10SM SCT026 BKN036 31/25 A3005 RMK AO2 RAE12 P0003 T03060250 Follow KHWO on AV Mobile HOLLYWOOD NORTH PERRY AIRPORT 954-983-5904
X51FAA ID X51, AWOS-3, KAJZ 291355Z AUTO 06004KT 7SM BKN095 OVC120 14/09 A3024 RMK AO2 T01420094 Follow  on AV Mobile HOMESTEAD 118.375 (305) 247-2791
KHSTFAA ID HST, KHST 291328Z AUTO 12007KT 10SM BKN022 31/25 A3004 RMK AO2 BKN V SCT Follow KHST on AV Mobile Homestead Air Force Base
KIMMFAA ID IMM, AWOS-3, KIMM 291355Z AUTO 15006KT 8SM CLR 31/31 A3006 RMK A01 P000 Follow KIMM on AV Mobile IMMOKALEE 118.525 239-657-2038
KINFFAA ID INF, AWOS-3, KINF 291335Z AUTO 16003KT 7SM CLR 28/22 A3005 RMK AO2 Follow KINF on AV Mobile INVERNESS 119.975 352-341-0264
KX84ICAO ID KX84 Islamorada Coast Guard Station
KHEGFAA ID HEG, AWOS-3 JACKSONVILLE 119.275 904-695-0334
KCRGFAA ID CRG, ASOS, KCRG 291253Z 14003KT 10SM BKN100 27/24 A3006 RMK AO2 SLP177 T02670244 Follow KCRG on AV Mobile JACKSONVILLE CRAIG MUN 904-646-4670
KJAXFAA ID JAX, ASOS, KJAX 291256Z 00000KT 10SM FEW010 BKN100 BKN250 26/24 A3005 Follow KJAX on AV Mobile JACKSONVILLE INTERNATIONAL 904-741-4304
KNIPFAA ID NIP, KNIP 291353Z 14005KT 10SM FEW075 BKN110 30/23 A3007 RMK AO2 SLP177 T03000233 Follow KNIP on AV Mobile JACKSONVILLE NAVAL AIR STN
KVQQFAA ID VQQ, AWOS-3, KVQQ 291350Z 00000KT 10SM SCT100 26/24 A3006 Follow KVQQ on AV Mobile Jacksonville, Cecil Field Airport 125.275 904-778-6934
KNENFAA ID NEN NOLF WHITEHOUSE FIELD, FL
KX80ICAO ID KX80 Jupiter Inlet Coast Guard Station
KEYWFAA ID EYW, ASOS, KEYW 291253Z 14008KT 10SM FEW026 31/24 A3002 Follow KEYW on AV Mobile KEY WEST INTERNATIONAL AIRPORT 119.65 305-292-4046
KNQXFAA ID NQX, KNQX 291253Z 14010KT 10SM SCT022 SCT250 31/24 A3002 RMK AO2 SLP164 T03110244 $ Follow KNQX on AV Mobile KEY WEST NAVAL AIR STATION
K42JFAA ID 42J, AWOS-3, K42J 291335Z AUTO RMK AO1 TSNO Follow K42J on AV Mobile KEYSTONE HEIGHTS 124.275 352-473-8273
KLCQFAA ID LCQ, AWOS-3, KLCQ 291335Z AUTO 15004KT 10SM BKN090 27/25 A3005 RMK AO2 Follow KLCQ on AV Mobile LAKE CITY 120.675 386-754-9366
X07FAA ID X07, AWOS-3, KAJZ 291355Z AUTO 06004KT 7SM BKN095 OVC120 14/09 A3024 RMK AO2 T01420094 Follow  on AV Mobile LAKE WALES 124.225 863-678-1334
KX81ICAO ID KX81 Lake Worth Inlet
KLALFAA ID LAL, AWOS-3PT, KLAL 291254Z 14005KT 15SM FEW250 27/25 A3005 Follow KLAL on AV Mobile Lakeland Regional 118.025 863-834-2030
KLEEFAA ID LEE, ASOS, KLEE 291253Z 17006KT 10SM FEW022 28/24 A3007 RMK AO2 SLP180 T02780239 Follow KLEE on AV Mobile LEESBURG REGIONAL AIRPORT 134.325 352-787-1565
24JFAA ID 24J, AWOS-3, KAJZ 291355Z AUTO 06004KT 7SM BKN095 OVC120 14/09 A3024 RMK AO2 T01420094 Follow  on AV Mobile LIVE OAK 118.225 386-362-1731
KX88ICAO ID KX88 Marathon Coast Guard Station
KMTHFAA ID MTH, ASOS, KMTH 291253Z AUTO VRB06KT 10SM CLR 31/26 A3002 RMK AO2 SLP166 T03060261 Follow KMTH on AV Mobile MARATHON AIRPORT 135.525 305-743-8373
KMKYFAA ID MKY, AWOS-3, KMKY 291335Z AUTO 11007KT 10SM FEW016 30/27 A3004 RMK AO1 Follow KMKY on AV Mobile MARCO ISLAND 120.075 239-394-8187
KMAIFAA ID MAI, ASOS, KMAI 291253Z AUTO 07006KT 10SM -RA CLR 24/22 A3003 RMK AO2 RAB53 SLP167 P0000 T02440222 Follow KMAI on AV Mobile MARIANNA MUNICIPAL AIRPORT 133.525 850-482-6082
KHRTFAA ID HRT, KHRT 291258Z AUTO 07006KT 10SM CLR 26/20 A2999 RMK AO2 SLP157 T02590202 $ Follow KHRT on AV Mobile Hurlburt Field
KNRBFAA ID NRB, KNRB 291352Z 09005KT 10SM BKN100 29/26 A3006 RMK AO2 SLP178 T02940256 $ Follow KNRB on AV Mobile MAYPORT NAVAL AIR FACILITY
KMLBFAA ID MLB, ASOS, KMLB 291253Z 16006KT 10SM CLR 29/24 A3005 Follow KMLB on AV Mobile MELBOURNE INTERNATIONAL 321-723-7403
KCOIFAA ID COI, AWOS-3 Merritt Island, Merritt Island Airport 119.025 321-986-8864
KTNTFAA ID TNT, AWOS-3 MIAMI 119.075 (239) 695-9198
KX87ICAO ID KX87 Miami Beach Coast Guard Station
KAMXICAO ID KAMX Miami Nexrad
KTMBFAA ID TMB, ASOS, KTMB 291253Z 13005KT 10SM CLR 31/25 A3004 Follow KTMB on AV Mobile KENDALL-TAMIAMI EXEC AIRPORT 305-235-1332
KMIAFAA ID MIA, ASOS, KMIA 291253Z 14008KT 10SM FEW022 SCT300 31/24 A3005 Follow KMIA on AV Mobile MIAMI INTERNATIONAL AIRPORT 305-870-0235
KOPFFAA ID OPF, KOPF 291305Z 13007KT 10SM FEW024 SCT029 BKN036 31/24 A3004 Follow KOPF on AV Mobile MIAMI OPA LOCKA AIRPORT
KNFJFAA ID NFJ CHOCTAW, WHITING FIELD, NOLF
KNSEFAA ID NSE, KNSE 291256Z 09004KT 10SM FEW050 BKN250 24/21 A3001 RMK AO2 SLP148 T02440211 $ Follow KNSE on AV Mobile MILTON WHITING FIELD (NORTH)
KNDZFAA ID NDZ, KNDZ 291256Z 08008KT 10SM SCT050 BKN250 25/21 A3001 RMK AO2 SLP148 T02500211 $ Follow KNDZ on AV Mobile MILTON WHITING FIELD (SOUTH)
KAPFFAA ID APF, ASOS, KAPF 291253Z 13006KT 10SM CLR 29/26 A3004 Follow KAPF on AV Mobile NAPLES MUNICIPAL AIRPORT 239-643-9886
KRRFICAO ID KRRF New Port Richey, Tampa Bay Executive Airport
KEVBFAA ID EVB, AWOS-3, KEVB 291350Z 19006KT 10SM SCT028 28/23 A3007 Follow KEVB on AV Mobile New Smyrna Beach, New Smyrna Beach Municipal Airport 124.625 386-409-4705
KOCFFAA ID OCF, AWOS-3, KOCF 291350Z 17006KT 10SM FEW015 28/24 A3005 Follow KOCF on AV Mobile Ocala, Ocala International Airport-Jim Taylor Field 128.125 352-237-8525
KOBEFAA ID OBE, AWOS-3, KOBE 291335Z AUTO 27/25 A3006 RMK AO2 LTG DSNT E AND W Follow KOBE on AV Mobile Okeechobee County Airport 118.675 863-467-1148
KORLFAA ID ORL, ASOS, KORL 291253Z 20004KT 10SM CLR 28/24 A3006 RMK AO2 SLP182 T02780239 Follow KORL on AV Mobile ORLANDO EXECUTIVE AIRPORT 407-658-6753
KMCOFAA ID MCO, ASOS, KMCO 291253Z 17004KT 10SM FEW010 FEW027 27/24 A3006 Follow KMCO on AV Mobile ORLANDO INTERNATIONAL AIRPORT 407-855-5235
KSFBFAA ID SFB, ASOS, KSFB 291253Z 18005KT 10SM CLR 27/24 A3006 Follow KSFB on AV Mobile ORLANDO SANFORD AIRPORT 407-321-9384
KISMFAA ID ISM, AWOS-3, KISM 291250Z 15005KT 10SM SKC 27/26 A3006 Follow KISM on AV Mobile Orlando, Kissimmee Municipal Airport 128.775 407-847-0533
KOMNFAA ID OMN, AWOS-3, KOMN 291350Z VRB004KT 10SM SCT032 28/24 A3006 Follow KOMN on AV Mobile Ormond Beach, Ormond Beach Municipal Airport 118.475 386-615-7084
28JFAA ID 28J, AWOS-3, KAJZ 291355Z AUTO 06004KT 7SM BKN095 OVC120 14/09 A3024 RMK AO2 T01420094 Follow  on AV Mobile PALATKA 119.92 386-312-2212
KXFLFAA ID XFL, AWOS-3, KXFL 291350Z VRB04KT 7SM FEW030 28/24 A3006 Follow KXFL on AV Mobile PALM COAST 128.325 386-437-7334
KECPFAA ID ECP, ASOS, KECP 291253Z 04006KT 10SM BKN070 26/22 A3000 Follow KECP on AV Mobile PANAMA CITY 119.975 850-235-7857
KPFNICAO ID KPFN, KPFN 030253Z VRB03KT 10SM FEW023 25/23 A2989 Follow KPFN on AV Mobile PANAMA CITY-BAY CTY INTERNATIONAL
KPAMFAA ID PAM, KPAM 291258Z AUTO 06007KT 10SM CLR 25/21 A3000 RMK AO2 SLP162 T02540212 $ Follow KPAM on AV Mobile Tyndall Air Force Base
KPNSFAA ID PNS, ASOS, KPNS 291253Z 07005KT 10SM SCT027 SCT034 BKN050 24/22 A3000 Follow KPNS on AV Mobile PENSACOLA REGIONAL AIRPORT 850-436-4799
KNPAFAA ID NPA, KNPA 291256Z 06009KT 10SM FEW020 SCT080 BKN250 27/24 A2998 RMK AO2 SLP154 T02670239 Follow KNPA on AV Mobile Pensacola, Naval Air Station
K40JFAA ID 40J, AWOS-3PT, K40J 291335Z AUTO 11006KT 10SM CLR 28/23 A3003 RMK AO2 LTG DSNT SW Follow K40J on AV Mobile PERRY-FOLEY AIRPORT 118.375 850-838-3526
FA54FAA ID FA54, Belfort CORAL CREEK
KPCMFAA ID PCM, AWOS-3, KPCM 311955Z AUTO 28003KT 10SM SCT055 33/16 A2998 RMK AO2 Follow KPCM on AV Mobile Plant City, Plant City Municipal Airport 120.025 813-764-8259
KPMPFAA ID PMP, ASOS, KPMP 291253Z 16008KT 10SM SCT023 32/24 A3004 RMK AO2 SLP174 T03170239 $ Follow KPMP on AV Mobile POMPANO BEACH AIRPARK 954-783-3720
K1J3ICAO ID K1J3 Ponce De Leon Inlet
KPGDFAA ID PGD, ASOS, KPGD 291253Z 14006KT 10SM CLR 29/26 A3005 RMK AO2 SLP176 T02890256 Follow KPGD on AV Mobile PUNTA GORDA CHARLOTTE COUNTY 135.675 941-639-0076
K1J5ICAO ID K1J5 Santa Rosa Coast Guard Station
KSRQFAA ID SRQ, ASOS, KSRQ 291253Z 08006KT 10SM CLR 28/25 A3001 Follow KSRQ on AV Mobile SARASOTA/BRADENTON INTERNATIONAL . 124.375 941-359-0117
KSEFFAA ID SEF, AWOS-3 SEBRING 119.475 863-655-6424
KSGJFAA ID SGJ, AWOS-3, KSGJ 291258Z 11008KT 10SM CLR 29/25 A3006 RMK AO2 SLP179 T02890250 Follow KSGJ on AV Mobile St. Augustine, St. Augustine Airport 904-824-7084
KPIEFAA ID PIE, ASOS, KPIE 291253Z 14004KT 10SM FEW027 28/25 A3003 Follow KPIE on AV Mobile ST PETERSBURG/CLEARWATER 727-531-3456
KSPGFAA ID SPG, ASOS, KSPG 291255Z 160/06 10 FEW080 SCT100 M/M 3002 Follow KSPG on AV Mobile ST PETERSBURG WHITTED AIRPORT 118.875 727-821-4334
KSUAFAA ID SUA, AWOS-3, KSUA 291247Z VRB03KT 7SM SCT050 SCT090 29/24 A3006 Follow KSUA on AV Mobile Stuart, Witham Field Airport 772-692-7399
KTLHFAA ID TLH, ASOS, KTLH 291253Z 10006KT 10SM FEW050 SCT250 27/22 A3003 Follow KTLH on AV Mobile TALLAHASSEE REGIONAL AIRPORT 850-576-3665
KTBWICAO ID KTBW Tampa Bay Area
KMCFFAA ID MCF, KMCF 291258Z AUTO 16005KT 10SM VCTS FEW095 28/26 A3004 RMK AO2 LTG DSNT S SLP175 T02830264 Follow KMCF on AV Mobile Macdill Air Force Base, Fl.
KTPAFAA ID TPA, ASOS, KTPA 291253Z 16004KT 10SM FEW019 SCT095 SCT250 28/24 A3004 Follow KTPA on AV Mobile TAMPA INTERNATIONAL AIRPORT 813-873-7228
KTPFFAA ID TPF, AWOS-3, KTPF 131715Z AUTO 23004KT 10SM CLR 32/23 A3012 RMK AO2 Follow KTPF on AV Mobile Tampa, Peter O Knight Airport 118.925 813-251-6824
KVDFFAA ID VDF, AWOS-3, KVDF 291335Z AUTO 14004KT 10SM CLR 30/25 A3005 RMK AO2 Follow KVDF on AV Mobile Tampa, Vandenberg Airport 121.125 813-630-0924
KVLGICAO ID KVLG The Villages
KVVGICAO ID KVVG, KVVG 182350Z AUTO RMK AO2 PWINO Follow KVVG on AV Mobile The Villages
KX68ICAO ID KX68 Titusville, NASA Shuttle Landing Facility
KTIXFAA ID TIX, KTIX 291348Z 17006KT 7SM SCT020 29/24 A3007 Follow KTIX on AV Mobile Titusville
KX21FAA ID X21, AWOS-3 Titusville, Arthur Dunn Air Park 119.725 321-385-0383
KTTSFAA ID TTS, KTTS 291258Z AUTO VRB02KT 10SM SCT040 29/25 A3006 RMK AO2 SLP182 T02850245 Follow KTTS on AV Mobile Titusville, NASA Shuttle Landing Facility
KVPSFAA ID VPS, KVPS 291255Z 07005KT 10SM SCT055 BKN200 25/21 A3001 RMK AO2A SLP168 T02540213 $ Follow KVPS on AV Mobile Valparaiso / Eglin Air Force Base
KVNCFAA ID VNC, AWOS-3, KVNC 291335Z AUTO RMK AO2 VSBY 1/2V5 PWINO TSNO Follow KVNC on AV Mobile VENICE 119.275
KX90ICAO ID KX90 Venice Long Range Navigation
KVRBFAA ID VRB, ASOS, KVRB 291253Z 14003KT 10SM FEW020 28/24 A3006 Follow KVRB on AV Mobile VERO BEACH MUNICIPAL AIRPORT 772-978-9535
F45FAA ID F45, AWOS-3, KAJZ 291355Z AUTO 06004KT 7SM BKN095 OVC120 14/09 A3024 RMK AO2 T01420094 Follow  on AV Mobile WEST PALM BEACH 119.975 561-630-6932
KLNAFAA ID LNA, AWOS-3 WEST PALM BEACH 119.925 561-964-0308
KPBIFAA ID PBI, ASOS, KPBI 291253Z 34003KT 10SM SCT025CB SCT130 BKN250 28/25 A3004 Follow KPBI on AV Mobile PALM BEACH INTERNATIONAL 123.75 561-683-2548
FD38FAA ID FD38, Belfort WELLINGTON AERO CLUB
X60FAA ID X60, AWOS-3, KAJZ 291355Z AUTO 06004KT 7SM BKN095 OVC120 14/09 A3024 RMK AO2 T01420094 Follow  on AV Mobile WILLISTON 118.425 352-528-9949
KGIFFAA ID GIF, ASOS, KGIF 291253Z AUTO 14004KT 10SM CLR 28/24 A3006 RMK AO2 SLP177 T02780239 TSNO Follow KGIF on AV Mobile WINTER HAVENS GILBERT AIRPORT 133.675 863-956-2097
KZPHFAA ID ZPH, ASOS, KZPH 291335Z AUTO 14005KT 10SM CLR 28/26 A3006 RMK AO2 LTG DSNT SW Follow KZPH on AV Mobile ZEPHYRHILLS 118.975 813-780-0031

Click on the AV Mobile icon AV Mobile icon by any station to follow that AWOS feed on AirportView.net Mobile.

Garmin aera 796 $1999 at Avionics Specialists LLC
Bose A20 Aviation Headsets $995 at Avionics Specialists LLC